Time;durP1;ratioP1;P1;durP2;ratioP2;P2;SDS_P1;SDS_P2;PMS_P1;PMS_P2;Temp;Humidity;BMP_temperature;BMP_pressure;BME280_temperature;BME280_humidity;BME280_pressure;Samples;Min_cycle;Max_cycle;Signal;HPM_P1;HPM_P2
2021/12/24 00:02:38;;;;;;;26.00;16.67;;;1.90;99.90;;;;;;8298705;28;20309;-82
2021/12/24 00:06:39;;;;;;;27.40;16.17;;;1.90;99.90;;;;;;8297509;28;20229;-80
2021/12/24 00:10:42;;;;;;;25.67;15.40;;;1.90;99.90;;;;;;8309143;28;20218;-81
2021/12/24 00:14:49;;;;;;;23.47;14.67;;;2.00;99.90;;;;;;8296412;28;20213;-81
2021/12/24 00:35:50;;;;;;;28.33;16.27;;;2.20;99.90;;;;;;8211419;28;21194;-81
2021/12/24 00:44:01;;;;;;;26.70;16.37;;;2.20;99.90;;;;;;8094128;28;21073;-81
2021/12/24 00:48:03;;;;;;;27.43;16.77;;;2.10;99.90;;;;;;8029478;28;20652;-80
2021/12/24 00:56:32;;;;;;;24.30;14.93;;;2.10;99.90;;;;;;8023763;28;22692;-80
2021/12/24 01:00:39;;;;;;;23.30;13.47;;;2.20;99.90;;;;;;8048374;28;20225;-80
2021/12/24 01:04:40;;;;;;;24.90;15.27;;;2.20;99.90;;;;;;8042374;28;20187;-83
2021/12/24 01:08:41;;;;;;;22.03;14.87;;;2.20;99.90;;;;;;8064815;28;20194;-82
2021/12/24 01:12:42;;;;;;;25.43;15.43;;;2.30;99.90;;;;;;8136271;28;20239;-80
2021/12/24 01:16:52;;;;;;;22.00;14.67;;;2.30;99.90;;;;;;8222374;28;20286;-81
2021/12/24 01:21:06;;;;;;;22.80;15.20;;;2.40;99.90;;;;;;8242762;28;20207;-82
2021/12/24 01:25:19;;;;;;;21.77;14.33;;;2.50;99.90;;;;;;8297289;28;20348;-81
2021/12/24 01:29:52;;;;;;;23.73;16.10;;;2.50;99.90;;;;;;8294954;28;20193;-81
2021/12/24 01:38:14;;;;;;;23.23;15.43;;;2.50;99.90;;;;;;8222314;28;20716;-82
2021/12/24 01:46:34;;;;;;;24.60;14.63;;;2.60;99.90;;;;;;8217721;28;20303;-84
2021/12/24 01:50:38;;;;;;;25.37;15.03;;;2.60;99.90;;;;;;8193488;28;20747;-83
2021/12/24 01:54:41;;;;;;;24.43;15.43;;;2.70;99.90;;;;;;8219518;28;20213;-81
2021/12/24 01:58:42;;;;;;;23.87;15.73;;;2.70;99.90;;;;;;8223885;28;20202;-82
2021/12/24 02:02:44;;;;;;;22.17;14.63;;;2.70;99.90;;;;;;8222070;28;20234;-82
2021/12/24 02:06:46;;;;;;;25.47;15.47;;;2.70;99.90;;;;;;8279567;28;20191;-81
2021/12/24 02:10:46;;;;;;;22.20;14.27;;;2.60;99.90;;;;;;8281890;28;20233;-83
2021/12/24 02:14:51;;;;;;;22.90;14.87;;;2.70;99.90;;;;;;8291635;28;20195;-82
2021/12/24 02:31:51;;;;;;;22.30;14.13;;;2.80;99.90;;;;;;8320322;28;20253;-81
2021/12/24 02:35:52;;;;;;;20.53;13.77;;;2.80;99.90;;;;;;8300305;28;20202;-80
2021/12/24 02:39:54;;;;;;;20.83;13.17;;;2.90;99.90;;;;;;8300237;28;20216;-80
2021/12/24 02:43:55;;;;;;;20.03;13.63;;;2.90;99.90;;;;;;8290677;28;20229;-81
2021/12/24 02:56:34;;;;;;;22.07;14.03;;;3.00;99.90;;;;;;8100182;28;20206;-82
2021/12/24 03:00:35;;;;;;;21.80;14.10;;;3.00;99.90;;;;;;8030923;28;20224;-83
2021/12/24 03:04:38;;;;;;;20.40;13.40;;;3.00;99.90;;;;;;8074599;28;21587;-83
2021/12/24 03:08:39;;;;;;;21.23;13.17;;;3.00;99.90;;;;;;8027785;28;20221;-84
2021/12/24 03:12:43;;;;;;;20.10;12.77;;;3.00;99.90;;;;;;8066075;28;20206;-84
2021/12/24 03:16:50;;;;;;;21.93;13.93;;;3.00;99.90;;;;;;8166670;28;20459;-84
2021/12/24 03:20:59;;;;;;;21.40;13.63;;;3.00;99.90;;;;;;8155643;28;20316;-84
2021/12/24 03:25:00;;;;;;;19.40;13.23;;;3.10;99.90;;;;;;8144098;28;20189;-82
2021/12/24 03:29:10;;;;;;;19.23;12.97;;;3.10;99.90;;;;;;8272754;28;20213;-84
2021/12/24 03:33:11;;;;;;;19.37;13.13;;;3.20;99.90;;;;;;8214880;28;20195;-82
2021/12/24 03:37:11;;;;;;;19.13;12.70;;;3.20;99.90;;;;;;8228966;28;20195;-81
2021/12/24 03:41:12;;;;;;;16.13;11.53;;;3.30;99.90;;;;;;8156710;28;20620;-83
2021/12/24 03:45:28;;;;;;;15.07;10.57;;;3.30;99.90;;;;;;8131166;28;20233;-82
2021/12/24 03:49:38;;;;;;;17.27;10.90;;;3.30;99.90;;;;;;8171811;28;21073;-81
2021/12/24 03:57:59;;;;;;;15.50;10.43;;;3.40;99.90;;;;;;8214764;28;21971;-83
2021/12/24 04:02:00;;;;;;;14.67;10.23;;;3.50;99.90;;;;;;8122392;28;20272;-82
2021/12/24 04:06:01;;;;;;;13.97;9.37;;;3.50;99.90;;;;;;8133680;28;20194;-83
2021/12/24 04:10:12;;;;;;;17.70;11.17;;;3.50;99.90;;;;;;8116848;28;20206;-83
2021/12/24 04:14:13;;;;;;;15.10;11.27;;;3.50;99.90;;;;;;8164539;28;20225;-83
2021/12/24 04:18:20;;;;;;;17.37;10.27;;;3.50;99.90;;;;;;8141628;28;20212;-82
2021/12/24 04:26:40;;;;;;;14.20;8.73;;;3.50;99.90;;;;;;8235408;28;20198;-84
2021/12/24 04:30:47;;;;;;;13.90;8.73;;;3.50;99.90;;;;;;8189152;28;20189;-81
2021/12/24 04:34:51;;;;;;;12.13;8.87;;;3.50;99.90;;;;;;8179881;28;20190;-83
2021/12/24 04:51:50;;;;;;;10.50;7.57;;;3.60;99.90;;;;;;8228779;28;20182;-83
2021/12/24 05:04:34;;;;;;;11.00;8.00;;;3.60;99.90;;;;;;8263782;28;21139;-84
2021/12/24 05:08:49;;;;;;;8.90;7.30;;;3.60;99.90;;;;;;8254058;28;20194;-81
2021/12/24 05:12:50;;;;;;;8.07;6.90;;;3.70;99.90;;;;;;8280098;28;20198;-82
2021/12/24 05:16:54;;;;;;;9.57;8.10;;;3.70;99.90;;;;;;8273393;28;20200;-83
2021/12/24 05:25:14;;;;;;;8.37;6.90;;;3.80;99.90;;;;;;8296552;28;20322;-84
2021/12/24 05:29:16;;;;;;;8.17;6.20;;;3.90;99.90;;;;;;8280317;28;20186;-83
2021/12/24 05:33:17;;;;;;;7.97;5.97;;;3.90;99.90;;;;;;8294723;28;20183;-82
2021/12/24 05:37:18;;;;;;;11.03;8.53;;;4.00;99.90;;;;;;8281107;28;20201;-81
2021/12/24 05:41:21;;;;;;;10.13;8.13;;;4.00;99.90;;;;;;8279148;28;21234;-81
2021/12/24 05:45:24;;;;;;;8.53;7.00;;;4.10;99.90;;;;;;8284265;28;20191;-82
2021/12/24 05:49:25;;;;;;;8.30;6.27;;;4.10;99.90;;;;;;8287040;28;20304;-84
2021/12/24 05:53:26;;;;;;;9.07;7.20;;;4.10;99.90;;;;;;8300304;28;20210;-84
2021/12/24 05:57:28;;;;;;;9.57;6.60;;;4.20;99.90;;;;;;8304521;28;20213;-84
2021/12/24 06:01:29;;;;;;;10.10;7.10;;;4.20;99.90;;;;;;8301935;28;20214;-81
2021/12/24 06:05:31;;;;;;;9.27;6.83;;;4.20;99.90;;;;;;8317085;28;20190;-83
2021/12/24 06:09:31;;;;;;;9.50;6.70;;;4.20;99.90;;;;;;8319591;28;20194;-83
2021/12/24 06:13:33;;;;;;;7.17;6.30;;;4.20;99.90;;;;;;8301772;28;20233;-82
2021/12/24 06:17:36;;;;;;;10.80;8.43;;;4.30;99.90;;;;;;8302833;28;20193;-83
2021/12/24 06:21:37;;;;;;;8.57;5.70;;;4.30;99.90;;;;;;8321347;28;20234;-81
2021/12/24 06:25:38;;;;;;;8.33;5.57;;;4.30;99.90;;;;;;8300317;28;20245;-81
2021/12/24 06:29:39;;;;;;;6.83;5.40;;;4.40;99.90;;;;;;8301210;28;20190;-80
2021/12/24 06:33:40;;;;;;;6.20;4.97;;;4.40;99.90;;;;;;8320395;28;20221;-81
2021/12/24 06:37:41;;;;;;;5.80;4.63;;;4.40;99.90;;;;;;8300695;28;20305;-81
2021/12/24 06:41:42;;;;;;;5.57;4.20;;;4.50;99.90;;;;;;8316474;28;20217;-83
2021/12/24 06:45:44;;;;;;;5.97;4.90;;;4.60;99.90;;;;;;8319998;28;20261;-81
2021/12/24 06:49:45;;;;;;;5.70;4.57;;;4.60;99.90;;;;;;8317053;28;20195;-80
2021/12/24 06:53:46;;;;;;;8.07;6.87;;;4.60;99.90;;;;;;8297797;28;20214;-84
2021/12/24 06:57:47;;;;;;;7.27;6.47;;;4.70;99.90;;;;;;8258714;28;20229;-82
2021/12/24 07:01:48;;;;;;;4.50;3.27;;;4.80;99.90;;;;;;8250422;28;20596;-82
2021/12/24 07:05:49;;;;;;;4.50;3.50;;;5.00;99.90;;;;;;8235019;28;20191;-85
2021/12/24 07:09:49;;;;;;;4.00;3.03;;;5.00;99.90;;;;;;8156520;28;20206;-85
2021/12/24 07:13:51;;;;;;;3.27;2.80;;;5.10;99.90;;;;;;8131655;28;20205;-85
2021/12/24 07:17:53;;;;;;;2.87;2.57;;;5.20;99.90;;;;;;8015567;28;20195;-81
2021/12/24 07:21:53;;;;;;;3.27;2.53;;;5.20;99.90;;;;;;7941477;28;21100;-85
2021/12/24 07:25:54;;;;;;;3.03;2.50;;;5.20;99.90;;;;;;8079350;28;21534;-84
2021/12/24 07:29:55;;;;;;;3.90;2.97;;;5.30;99.90;;;;;;8134747;28;20190;-85
2021/12/24 07:33:56;;;;;;;2.67;2.17;;;5.30;99.90;;;;;;8211830;28;20191;-81
2021/12/24 07:37:57;;;;;;;9.50;5.17;;;5.30;99.90;;;;;;8263606;28;20202;-83
2021/12/24 07:41:58;;;;;;;3.97;1.90;;;5.40;99.90;;;;;;8294761;28;20249;-85
2021/12/24 07:45:59;;;;;;;3.33;1.83;;;5.40;99.90;;;;;;8248326;28;20194;-84
2021/12/24 07:50:03;;;;;;;3.17;1.90;;;5.40;99.90;;;;;;8273541;28;20201;-84
2021/12/24 07:54:04;;;;;;;2.03;1.60;;;5.40;99.90;;;;;;8272310;28;20214;-81
2021/12/24 07:58:07;;;;;;;1.57;1.47;;;5.50;99.90;;;;;;8272666;28;20190;-83
2021/12/24 08:02:14;;;;;;;1.63;1.23;;;5.50;99.90;;;;;;8180765;28;20323;-81
2021/12/24 08:06:16;;;;;;;2.20;2.00;;;5.60;99.90;;;;;;8079295;28;20187;-87
2021/12/24 08:10:17;;;;;;;5.40;4.90;;;5.70;99.90;;;;;;7998723;28;20225;-80
2021/12/24 08:14:18;;;;;;;5.93;4.90;;;5.80;99.90;;;;;;7967147;28;20195;-81
2021/12/24 08:18:19;;;;;;;3.70;3.40;;;5.90;99.90;;;;;;7968146;28;20202;-79
2021/12/24 08:22:19;;;;;;;1.70;1.40;;;5.90;99.90;;;;;;7894629;28;20252;-83
2021/12/24 08:26:21;;;;;;;1.60;1.50;;;6.00;99.90;;;;;;7773688;28;23730;-84
2021/12/24 08:30:22;;;;;;;1.87;1.30;;;6.10;99.90;;;;;;7661532;28;20202;-82
2021/12/24 08:34:23;;;;;;;1.27;1.17;;;6.20;99.90;;;;;;7696011;28;21764;-86
2021/12/24 08:38:24;;;;;;;1.77;1.63;;;6.20;99.90;;;;;;7697338;28;22636;-84
2021/12/24 08:42:25;;;;;;;2.60;2.40;;;6.20;99.90;;;;;;7610687;28;20221;-84
2021/12/24 08:46:26;;;;;;;1.30;1.07;;;6.20;99.90;;;;;;7596554;28;20195;-82
2021/12/24 08:50:27;;;;;;;3.47;1.83;;;6.30;99.90;;;;;;7721838;28;20248;-85
2021/12/24 08:54:28;;;;;;;2.50;1.70;;;6.30;99.90;;;;;;7627234;28;20228;-84
2021/12/24 08:58:29;;;;;;;2.17;1.40;;;6.40;99.90;;;;;;7766778;28;20983;-84
2021/12/24 09:02:30;;;;;;;2.13;1.70;;;6.40;99.90;;;;;;7914997;28;20215;-85
2021/12/24 09:06:31;;;;;;;2.17;1.33;;;6.60;99.90;;;;;;8093369;28;20195;-83
2021/12/24 09:10:32;;;;;;;1.70;1.47;;;6.60;99.90;;;;;;8123260;28;20260;-85
2021/12/24 09:14:33;;;;;;;2.40;1.70;;;6.60;99.90;;;;;;8180756;28;20194;-84
2021/12/24 09:18:36;;;;;;;2.13;1.47;;;6.70;99.90;;;;;;8274589;28;20245;-85
2021/12/24 09:22:38;;;;;;;1.93;1.73;;;6.70;99.90;;;;;;7994637;28;20218;-85
2021/12/24 09:26:39;;;;;;;2.73;2.07;;;6.70;99.90;;;;;;7924053;28;20186;-87
2021/12/24 09:30:40;;;;;;;1.30;1.20;;;6.70;99.90;;;;;;7975501;28;20226;-86
2021/12/24 09:34:41;;;;;;;1.50;1.30;;;6.80;99.90;;;;;;8009107;28;20273;-88
2021/12/24 09:38:42;;;;;;;1.47;1.20;;;6.90;99.90;;;;;;8019413;28;20898;-84
2021/12/24 09:42:44;;;;;;;1.80;1.40;;;7.00;99.90;;;;;;8024997;28;21240;-87
2021/12/24 09:46:45;;;;;;;3.13;1.97;;;7.00;99.90;;;;;;7969851;28;20181;-83
2021/12/24 09:50:49;;;;;;;2.33;1.37;;;7.00;99.90;;;;;;8174263;28;20194;-85
2021/12/24 09:54:51;;;;;;;4.00;3.30;;;7.10;99.90;;;;;;8160623;28;20210;-87
2021/12/24 09:58:52;;;;;;;4.00;3.30;;;7.10;99.90;;;;;;8194414;28;20225;-85
2021/12/24 10:02:55;;;;;;;2.33;1.87;;;7.10;99.90;;;;;;8290725;28;20214;-87
2021/12/24 10:07:06;;;;;;;2.00;1.80;;;7.20;99.90;;;;;;8312582;28;20179;-85
2021/12/24 10:11:11;;;;;;;2.57;1.80;;;7.20;99.90;;;;;;8295210;28;20210;-87
2021/12/24 10:15:12;;;;;;;2.33;1.90;;;7.10;99.90;;;;;;8299985;28;20241;-84
2021/12/24 10:19:14;;;;;;;2.60;1.80;;;7.10;99.90;;;;;;8298583;28;21063;-87
2021/12/24 10:23:42;;;;;;;2.30;1.80;;;7.20;99.90;;;;;;8294180;28;20205;-83
2021/12/24 10:27:44;;;;;;;3.07;2.53;;;7.20;99.90;;;;;;8089857;28;22090;-86
2021/12/24 10:31:54;;;;;;;4.07;2.60;;;7.30;99.90;;;;;;7796900;28;20828;-86
2021/12/24 10:36:03;;;;;;;4.90;2.90;;;7.40;99.90;;;;;;7775405;28;22005;-86
2021/12/24 10:40:06;;;;;;;3.43;2.20;;;7.40;99.90;;;;;;7802112;28;22424;-85
2021/12/24 10:44:17;;;;;;;3.57;1.87;;;7.50;99.90;;;;;;7815907;28;20187;-85
2021/12/24 10:48:20;;;;;;;3.17;2.23;;;7.60;99.90;;;;;;7710754;28;20210;-86
2021/12/24 10:56:28;;;;;;;2.30;1.53;;;7.80;99.90;;;;;;7696552;28;21971;-85
2021/12/24 11:00:38;;;;;;;3.10;1.93;;;7.90;99.90;;;;;;7618447;28;21199;-86
2021/12/24 11:04:45;;;;;;;3.40;2.67;;;7.90;99.90;;;;;;7737890;28;21521;-86
2021/12/24 11:08:53;;;;;;;3.27;1.60;;;7.90;99.90;;;;;;7753726;28;20584;-85
2021/12/24 11:13:07;;;;;;;2.53;1.37;;;7.90;99.90;;;;;;7687964;28;20202;-84
2021/12/24 11:17:09;;;;;;;2.53;1.53;;;7.90;99.90;;;;;;7558943;28;21555;-86
2021/12/24 11:21:20;;;;;;;3.07;1.80;;;7.90;99.90;;;;;;7560068;28;22213;-85
2021/12/24 11:25:23;;;;;;;2.77;1.70;;;7.90;99.90;;;;;;7803398;28;20191;-85
2021/12/24 11:29:24;;;;;;;2.30;1.47;;;7.90;99.90;;;;;;7809232;28;20210;-82
2021/12/24 11:33:29;;;;;;;1.57;1.47;;;7.90;99.90;;;;;;7779185;28;20183;-87
2021/12/24 11:37:31;;;;;;;2.40;2.10;;;8.00;99.90;;;;;;7865420;28;21115;-86
2021/12/24 11:41:33;;;;;;;3.67;2.07;;;8.00;99.90;;;;;;8066035;28;21646;-86
2021/12/24 11:45:34;;;;;;;2.43;1.70;;;8.00;99.90;;;;;;8140687;28;20194;-86
2021/12/24 11:49:36;;;;;;;3.23;1.60;;;8.00;99.90;;;;;;8302113;28;20423;-82
2021/12/24 11:53:37;;;;;;;3.23;1.87;;;8.10;99.90;;;;;;8284609;28;20281;-85
2021/12/24 11:57:50;;;;;;;1.60;1.50;;;8.10;99.90;;;;;;8301481;28;20229;-86
2021/12/24 12:01:51;;;;;;;3.43;1.93;;;8.10;99.90;;;;;;8280971;28;20214;-85
2021/12/24 12:05:52;;;;;;;5.00;2.03;;;8.10;99.90;;;;;;8299865;28;21154;-83
2021/12/24 12:09:52;;;;;;;2.57;2.10;;;8.10;99.90;;;;;;8285314;28;20674;-83
2021/12/24 12:14:37;;;;;;;3.17;2.87;;;8.20;99.90;;;;;;8286933;28;20205;-85
2021/12/24 12:23:01;;;;;;;2.33;1.67;;;8.40;99.90;;;;;;8073126;28;20229;-86
2021/12/24 12:27:26;;;;;;;3.93;1.53;;;8.30;99.90;;;;;;8037346;28;20290;-88
2021/12/24 12:31:28;;;;;;;3.30;1.93;;;8.30;99.90;;;;;;8037015;28;20195;-83
2021/12/24 12:35:41;;;;;;;3.37;1.73;;;8.30;99.90;;;;;;8028199;28;20289;-86
2021/12/24 12:39:42;;;;;;;2.63;1.97;;;8.40;99.90;;;;;;8052599;28;20206;-87
2021/12/24 12:43:44;;;;;;;2.37;1.93;;;8.40;99.90;;;;;;7986010;28;20199;-84
2021/12/24 12:47:59;;;;;;;4.83;2.33;;;8.40;99.90;;;;;;8205935;28;20182;-87
2021/12/24 12:52:04;;;;;;;5.80;5.13;;;8.40;99.90;;;;;;8314997;28;20217;-84
2021/12/24 12:56:30;;;;;;;3.23;2.10;;;8.40;99.90;;;;;;8299157;28;20253;-85
2021/12/24 13:00:33;;;;;;;7.13;2.87;;;8.40;99.90;;;;;;8298352;28;20301;-85
2021/12/24 13:04:34;;;;;;;3.50;2.73;;;8.40;99.90;;;;;;8297686;28;20301;-79
2021/12/24 13:08:38;;;;;;;3.03;1.53;;;8.40;99.90;;;;;;8317103;28;20194;-82
2021/12/24 13:12:39;;;;;;;2.03;1.50;;;8.50;99.90;;;;;;8291313;28;20201;-83
2021/12/24 13:17:17;;;;;;;4.03;2.97;;;8.50;99.90;;;;;;8253417;28;21133;-86
2021/12/24 13:25:38;;;;;;;40.13;24.23;;;8.50;99.90;;;;;;8050182;28;20206;-84
2021/12/24 13:29:39;;;;;;;5.77;3.43;;;8.50;99.90;;;;;;8027536;28;20791;-89
2021/12/24 13:33:40;;;;;;;15.23;8.20;;;8.50;99.90;;;;;;8089178;28;20198;-86
2021/12/24 13:37:45;;;;;;;13.53;9.20;;;8.40;99.90;;;;;;8181781;28;20201;-85
2021/12/24 13:41:47;;;;;;;3.37;2.60;;;8.40;99.90;;;;;;8182062;28;20627;-86
2021/12/24 13:45:51;;;;;;;4.80;3.23;;;8.40;99.90;;;;;;8230913;28;20327;-84
2021/12/24 13:54:34;;;;;;;4.13;2.80;;;8.30;99.90;;;;;;8298317;28;20241;-88
2021/12/24 13:58:35;;;;;;;15.67;9.03;;;8.30;99.90;;;;;;8277577;28;20191;-88
2021/12/24 14:02:36;;;;;;;5.30;3.73;;;8.30;99.90;;;;;;8240984;28;20222;-86
2021/12/24 14:06:49;;;;;;;3.37;3.00;;;8.30;99.90;;;;;;8213887;28;20583;-86
2021/12/24 14:11:10;;;;;;;4.20;2.70;;;8.20;99.90;;;;;;8181761;28;20285;-86
2021/12/24 14:15:14;;;;;;;3.40;2.70;;;8.20;99.90;;;;;;8142711;28;20834;-86
2021/12/24 14:19:45;;;;;;;4.40;2.60;;;8.20;99.90;;;;;;8115147;28;20446;-86
2021/12/24 14:24:04;;;;;;;2.93;2.33;;;8.30;99.90;;;;;;8064808;28;20285;-84
2021/12/24 14:28:14;;;;;;;3.07;2.10;;;8.30;99.90;;;;;;8041037;28;20179;-84
2021/12/24 14:32:40;;;;;;;5.93;2.30;;;8.30;99.90;;;;;;7999210;28;20578;-85
2021/12/24 14:36:57;;;;;;;3.43;2.10;;;8.40;99.90;;;;;;8037377;28;20193;-86
2021/12/24 14:40:59;;;;;;;3.27;2.10;;;8.40;99.90;;;;;;8012335;28;20273;-87
2021/12/24 14:45:33;;;;;;;3.17;2.10;;;8.40;99.90;;;;;;8012845;28;20183;-86
2021/12/24 14:49:39;;;;;;;4.20;2.13;;;8.50;99.90;;;;;;8008053;28;20205;-87
2021/12/24 14:53:46;;;;;;;6.53;2.20;;;8.50;99.90;;;;;;8029327;28;21103;-85
2021/12/24 14:57:54;;;;;;;17.10;7.83;;;8.50;99.90;;;;;;8010751;28;22083;-85
2021/12/24 15:01:59;;;;;;;22.47;8.90;;;8.50;99.90;;;;;;7996215;28;20203;-86
2021/12/24 15:06:01;;;;;;;3.03;2.20;;;8.50;99.90;;;;;;7961354;28;20186;-84
2021/12/24 15:10:12;;;;;;;4.10;2.50;;;8.40;99.90;;;;;;8009692;28;20202;-78
2021/12/24 15:14:15;;;;;;;6.73;3.57;;;8.50;99.90;;;;;;8016999;28;20190;-79
2021/12/24 15:18:17;;;;;;;1.63;1.17;;;7.60;99.90;;;;;;7981395;28;21289;-80
2021/12/24 15:22:17;;;;;;;3.90;2.30;;;6.50;99.90;;;;;;7978781;28;20735;-86
2021/12/24 15:26:21;;;;;;;2.17;1.60;;;5.80;99.90;;;;;;8142296;28;20607;-82
2021/12/24 15:30:22;;;;;;;5.80;2.80;;;5.50;99.90;;;;;;8196670;28;20216;-85
2021/12/24 15:34:23;;;;;;;3.77;2.10;;;5.30;99.90;;;;;;8167781;28;20217;-86
2021/12/24 15:38:25;;;;;;;4.67;2.47;;;5.20;99.90;;;;;;8003081;28;20187;-87
2021/12/24 15:42:28;;;;;;;2.80;1.53;;;5.20;99.90;;;;;;8071647;28;20211;-85
2021/12/24 15:46:30;;;;;;;3.37;1.37;;;5.00;99.90;;;;;;8040193;28;20285;-86
2021/12/24 15:50:31;;;;;;;3.80;2.27;;;4.70;99.90;;;;;;8086035;28;20218;-87
2021/12/24 15:54:32;;;;;;;1.37;0.93;;;4.40;99.90;;;;;;8112648;28;20221;-87
2021/12/24 15:58:34;;;;;;;2.00;1.20;;;4.00;99.90;;;;;;8047045;28;20194;-87
2021/12/24 16:02:38;;;;;;;1.97;1.50;;;3.70;99.90;;;;;;8069181;28;20218;-87
2021/12/24 16:06:39;;;;;;;2.30;1.30;;;3.40;99.90;;;;;;8174506;28;20190;-84
2021/12/24 16:10:40;;;;;;;2.47;1.40;;;3.10;99.90;;;;;;8171825;28;20229;-87
2021/12/24 16:14:43;;;;;;;3.90;1.60;;;3.00;99.90;;;;;;8009929;28;20194;-86
2021/12/24 16:18:44;;;;;;;4.67;1.87;;;2.90;99.90;;;;;;7973909;28;20195;-85
2021/12/24 16:22:47;;;;;;;3.53;1.30;;;2.80;99.90;;;;;;7925774;28;20218;-89
2021/12/24 16:26:51;;;;;;;1.60;1.00;;;2.70;99.90;;;;;;7968827;28;20649;-89
2021/12/24 16:30:51;;;;;;;2.73;1.30;;;2.40;99.90;;;;;;7984144;28;20213;-88
2021/12/24 16:34:54;;;;;;;1.37;1.10;;;2.30;99.90;;;;;;8001193;28;20186;-90
2021/12/24 16:38:55;;;;;;;2.87;1.57;;;2.10;99.90;;;;;;8021106;28;20210;-92
2021/12/24 16:42:56;;;;;;;4.10;1.90;;;1.90;99.90;;;;;;7925958;28;20278;-90
2021/12/24 16:47:15;;;;;;;3.17;1.37;;;1.90;99.90;;;;;;8031186;28;21096;-88
2021/12/24 16:51:26;;;;;;;4.43;2.23;;;1.70;99.90;;;;;;8016989;28;20186;-91
2021/12/24 16:55:30;;;;;;;2.17;1.50;;;1.60;99.90;;;;;;8072571;28;21442;-90
2021/12/24 16:59:32;;;;;;;3.87;2.23;;;1.40;99.90;;;;;;8132296;28;20233;-90
2021/12/24 17:03:33;;;;;;;3.47;1.60;;;1.20;99.90;;;;;;8183138;28;20528;-88
2021/12/24 17:07:34;;;;;;;4.43;2.50;;;1.10;99.90;;;;;;8143437;28;20850;-89
2021/12/24 17:11:41;;;;;;;2.37;1.63;;;1.00;99.90;;;;;;8152886;28;20198;-91
2021/12/24 17:15:42;;;;;;;2.87;1.90;;;1.00;99.90;;;;;;8173451;28;20326;-90
2021/12/24 17:19:43;;;;;;;4.53;2.67;;;0.90;99.90;;;;;;8111802;28;20211;-89
2021/12/24 17:23:50;;;;;;;4.43;2.70;;;0.90;99.90;;;;;;8041460;28;20240;-90
2021/12/24 17:28:04;;;;;;;4.33;2.83;;;0.80;99.90;;;;;;8086317;28;20202;-91
2021/12/24 17:32:06;;;;;;;5.17;3.30;;;0.70;99.90;;;;;;8138986;28;20191;-88
2021/12/24 17:36:19;;;;;;;3.93;2.93;;;0.60;99.90;;;;;;8068589;28;20818;-89
2021/12/24 17:40:30;;;;;;;3.70;2.50;;;0.60;99.90;;;;;;8039484;28;21316;-91
2021/12/24 17:44:34;;;;;;;2.83;2.40;;;0.60;99.90;;;;;;8017134;28;20194;-92
2021/12/24 17:48:36;;;;;;;2.30;1.77;;;0.60;99.90;;;;;;8067584;28;20260;-91
2021/12/24 17:52:48;;;;;;;2.47;1.90;;;0.60;99.90;;;;;;8057352;28;21093;-91
2021/12/24 17:56:53;;;;;;;2.13;1.93;;;0.60;99.90;;;;;;8054120;28;21467;-92
2021/12/24 18:01:03;;;;;;;2.63;1.80;;;0.60;99.90;;;;;;8160241;28;20211;-91
2021/12/24 18:05:12;;;;;;;2.17;1.53;;;0.60;99.90;;;;;;8229389;28;20190;-91
2021/12/24 18:13:42;;;;;;;2.40;1.77;;;0.50;99.90;;;;;;8156800;28;21352;-91
2021/12/24 18:17:46;;;;;;;3.23;2.13;;;0.50;99.90;;;;;;8073102;28;20219;-90
2021/12/24 18:21:47;;;;;;;2.27;2.07;;;0.40;99.90;;;;;;8139261;28;20765;-91
2021/12/24 18:25:51;;;;;;;4.10;3.03;;;0.40;99.90;;;;;;8035303;28;20191;-91
2021/12/24 18:29:52;;;;;;;2.50;2.07;;;0.40;99.90;;;;;;8022664;28;20241;-91
2021/12/24 18:33:56;;;;;;;3.93;2.77;;;0.40;99.90;;;;;;7951246;28;22439;-87
2021/12/24 18:38:09;;;;;;;3.53;2.60;;;0.40;99.90;;;;;;7951859;28;22322;-91
2021/12/24 18:42:11;;;;;;;3.63;2.60;;;0.50;99.90;;;;;;8105830;28;20255;-92
2021/12/24 18:46:12;;;;;;;3.23;2.80;;;0.50;99.90;;;;;;8197839;28;20241;-90
2021/12/24 18:50:13;;;;;;;4.00;2.90;;;0.50;99.90;;;;;;8204092;28;20206;-90
2021/12/24 18:54:14;;;;;;;4.53;3.53;;;0.50;99.90;;;;;;8265699;28;20287;-86
2021/12/24 18:58:16;;;;;;;4.10;2.77;;;0.50;99.90;;;;;;8310836;28;20193;-87
2021/12/24 19:02:17;;;;;;;3.57;3.00;;;0.50;99.90;;;;;;8310878;28;20259;-90
2021/12/24 19:06:19;;;;;;;4.23;3.23;;;0.50;99.90;;;;;;8297512;28;20194;-91
2021/12/24 19:10:21;;;;;;;4.43;3.13;;;0.60;99.90;;;;;;8311087;28;20206;-88
2021/12/24 19:14:22;;;;;;;3.70;3.17;;;0.60;99.90;;;;;;8302316;28;20186;-91
2021/12/24 19:18:23;;;;;;;4.47;2.93;;;0.70;99.90;;;;;;8310762;28;20191;-89
2021/12/24 19:22:24;;;;;;;5.17;2.93;;;0.60;99.90;;;;;;8319309;28;20213;-92
2021/12/24 19:26:25;;;;;;;4.60;3.27;;;0.60;99.90;;;;;;8312654;28;20244;-89
2021/12/24 19:30:26;;;;;;;3.50;2.50;;;0.60;99.90;;;;;;8312312;28;20218;-88
2021/12/24 19:34:27;;;;;;;3.57;2.70;;;0.60;99.90;;;;;;8312226;28;20266;-87
2021/12/24 19:38:28;;;;;;;3.83;3.20;;;0.60;99.90;;;;;;8313772;28;20183;-86
2021/12/24 19:42:29;;;;;;;3.57;2.90;;;0.50;99.90;;;;;;8326545;28;20318;-90
2021/12/24 19:46:34;;;;;;;5.23;3.13;;;0.50;99.90;;;;;;8314449;28;20182;-90
2021/12/24 19:50:38;;;;;;;4.00;3.17;;;0.50;99.90;;;;;;8315388;28;20194;-90
2021/12/24 19:54:40;;;;;;;7.50;4.03;;;0.50;99.90;;;;;;8316428;28;20212;-87
2021/12/24 19:58:41;;;;;;;4.33;3.40;;;0.50;99.90;;;;;;8308959;28;20198;-86
2021/12/24 20:02:43;;;;;;;4.73;3.33;;;0.50;99.90;;;;;;8307550;28;20218;-90
2021/12/24 20:06:44;;;;;;;5.57;4.03;;;0.40;99.90;;;;;;8310305;28;20845;-89
2021/12/24 20:10:46;;;;;;;5.47;3.63;;;0.40;99.90;;;;;;8314469;28;20236;-89
2021/12/24 20:14:47;;;;;;;5.27;4.07;;;0.40;99.90;;;;;;8316010;28;20178;-86
2021/12/24 20:18:53;;;;;;;7.63;4.63;;;0.40;99.90;;;;;;8307126;28;20183;-91
2021/12/24 20:22:58;;;;;;;8.13;4.80;;;0.40;99.90;;;;;;8303872;28;20206;-91
2021/12/24 20:27:00;;;;;;;9.53;5.87;;;0.40;99.90;;;;;;8310056;28;20213;-85
2021/12/24 20:31:04;;;;;;;9.73;6.73;;;0.40;99.90;;;;;;8308654;28;20187;-90
2021/12/24 20:35:07;;;;;;;11.33;6.43;;;0.30;99.90;;;;;;8308743;28;20206;-89
2021/12/24 20:39:08;;;;;;;10.77;6.43;;;0.30;99.90;;;;;;8304349;28;20183;-90
2021/12/24 20:43:09;;;;;;;11.23;7.47;;;0.30;99.90;;;;;;8310203;28;20241;-85
2021/12/24 20:47:17;;;;;;;12.83;7.17;;;0.30;99.90;;;;;;8308586;28;20178;-89
2021/12/24 20:51:18;;;;;;;11.33;7.23;;;0.30;99.90;;;;;;8304553;28;20182;-89
2021/12/24 20:55:25;;;;;;;11.80;7.10;;;0.30;99.90;;;;;;8301803;28;20212;-84
2021/12/24 20:59:26;;;;;;;10.50;7.73;;;0.20;99.90;;;;;;8308354;28;20196;-86
2021/12/24 21:03:31;;;;;;;13.53;8.20;;;0.20;99.90;;;;;;8304198;28;20210;-88
2021/12/24 21:07:32;;;;;;;12.37;8.17;;;0.20;99.90;;;;;;8307537;28;20187;-90
2021/12/24 21:11:33;;;;;;;12.43;7.20;;;0.20;99.90;;;;;;8305911;28;20214;-89
2021/12/24 21:15:52;;;;;;;13.60;8.67;;;0.20;99.90;;;;;;8305204;28;20200;-86
2021/12/24 21:19:57;;;;;;;13.37;8.57;;;0.20;99.90;;;;;;8303128;28;20218;-89
2021/12/24 21:24:04;;;;;;;14.67;8.73;;;0.20;99.90;;;;;;8304850;28;20249;-91
2021/12/24 21:28:05;;;;;;;14.27;8.67;;;0.20;99.90;;;;;;8303344;28;20233;-90
2021/12/24 21:32:07;;;;;;;11.63;8.30;;;0.20;99.90;;;;;;8304108;28;20498;-90
2021/12/24 21:36:08;;;;;;;12.53;7.67;;;0.20;99.90;;;;;;8302488;28;20159;-87
2021/12/24 21:40:13;;;;;;;14.00;8.40;;;0.20;99.90;;;;;;8300663;28;20213;-87
2021/12/24 21:44:14;;;;;;;12.57;7.30;;;0.20;99.90;;;;;;8307539;28;20179;-86
2021/12/24 21:48:18;;;;;;;13.33;8.10;;;0.20;99.90;;;;;;8307725;28;20197;-90
2021/12/24 21:52:22;;;;;;;15.70;9.80;;;0.20;99.90;;;;;;8302794;28;20186;-91
2021/12/24 21:56:23;;;;;;;11.47;8.10;;;0.20;99.90;;;;;;8300893;28;20712;-91
2021/12/24 22:00:25;;;;;;;14.70;8.33;;;0.20;99.90;;;;;;8299495;28;20198;-91
2021/12/24 22:04:40;;;;;;;12.23;7.13;;;0.10;99.90;;;;;;8314163;28;20178;-90
2021/12/24 22:08:42;;;;;;;12.73;7.50;;;0.10;99.90;;;;;;8293701;28;20175;-89
2021/12/24 22:12:43;;;;;;;10.30;7.17;;;0.10;99.90;;;;;;8305227;28;20523;-89
2021/12/24 22:16:44;;;;;;;10.70;7.30;;;0.10;99.90;;;;;;8316886;28;20332;-85
2021/12/24 22:20:47;;;;;;;10.23;6.67;;;0.10;99.90;;;;;;8309739;28;20241;-86
2021/12/24 22:24:51;;;;;;;10.73;6.70;;;0.00;99.90;;;;;;8317939;28;20199;-89
2021/12/24 22:28:52;;;;;;;11.30;6.80;;;0.00;99.90;;;;;;8314673;28;20217;-86
2021/12/24 22:32:54;;;;;;;14.23;8.30;;;0.00;99.90;;;;;;8314238;28;20206;-90
2021/12/24 22:36:55;;;;;;;11.70;7.30;;;0.00;99.90;;;;;;8309729;28;20180;-91
2021/12/24 22:40:56;;;;;;;20.53;9.67;;;0.00;99.90;;;;;;8327905;28;20217;-86
2021/12/24 22:44:57;;;;;;;14.90;8.97;;;0.00;99.90;;;;;;8318228;28;20224;-85
2021/12/24 22:48:58;;;;;;;11.60;6.70;;;-0.10;99.90;;;;;;8332885;28;20204;-90
2021/12/24 22:53:00;;;;;;;10.60;6.67;;;-0.10;99.90;;;;;;8327671;28;20206;-88
2021/12/24 22:57:02;;;;;;;8.07;5.00;;;-0.20;99.90;;;;;;8320019;28;20186;-91
2021/12/24 23:01:05;;;;;;;4.43;2.77;;;-0.20;99.90;;;;;;8310510;28;20305;-88
2021/12/24 23:05:06;;;;;;;3.20;2.37;;;-0.30;99.90;;;;;;8308424;28;20190;-85
2021/12/24 23:09:08;;;;;;;2.47;2.00;;;-0.40;99.90;;;;;;8314134;28;20185;-85
2021/12/24 23:13:09;;;;;;;3.50;2.40;;;-0.50;99.90;;;;;;8305323;28;20232;-92